Tiempo atmosférico en la estación meteorológica de Pamplona Aeropuerto, Navarra (459 m.)



Fecha
DESCASC
Temp. máxima en grados centígrados (hora)
DESCASC
Temp. mínima en grados centígrados (hora)
DESCASC
Temp. media en grados centígrados
DESCASC
Racha de viento máxima en m/sg (hora)
DESCASC
Velocidad máxima media en intervalos de 10 minutos(hora)
DESCASC
Precipitaciones diarias en mm
DESCASC
Precipitaciones de 00:00 a 06:00 en mm
DESCASC
Precipitaciones de 06:00 a 12:00 en mm
DESCASC
Precipitaciones de 12:00 a 18:00 en mm
DESCASC
Precipitaciones de 18:00 a 24:00 en mm
DESCASC
14-07-2019 27.1 (14:40) 17.7 (00:00) 22.4 13.33 (16:50) 10 (11:30) 0 0 0 0 0
13-07-2019 29.7 (15:50) 15.9 (00:00) 22.8 18.61 (17:40) 15.56 (17:40) -- -- 0 0 0.5
12-07-2019 32.7 (15:20) 13.7 (00:00) 23.2 9.72 (15:50) 6.67 (18:40) -- -- -- -- --
11-07-2019 30.9 (16:00) 12.5 (00:00) 21.7 9.17 (17:30) 6.67 (18:20) -- -- -- -- --
10-07-2019 29 (16:30) 12.9 (00:00) 20.9 12.5 (18:40) 9.17 (18:40) -- -- -- -- --
09-07-2019 23 (16:40) 15.2 (00:00) 19.1 11.67 (17:30) 7.78 (18:30) -- 0 -- -- --
08-07-2019 28.4 (13:20) 16.5 (00:00) 22.4 14.44 (19:00) 10.56 (19:10) 7.1 1.6 0 4.6 0.9
07-07-2019 30.9 (16:20) 18.1 (00:00) 24.5 13.33 (18:40) 10 (19:40) 0 0 0 0 0
06-07-2019 36.2 (16:50) 18.9 (00:00) 27.6 13.33 (18:40) 9.17 (17:30) 0 0 0 0 0
05-07-2019 36.4 (17:30) 19.4 (00:00) 27.9 12.78 (17:50) 9.72 (17:50) 0 0 0 0 0
04-07-2019 36 (17:20) 17.8 (00:00) 26.9 10.28 (13:30) 5.56 (18:00) -- -- -- 0 0
03-07-2019 34.5 (15:40) 16 (00:00) 25.3 9.72 (14:10) 6.11 (14:00) -- -- -- -- --
02-07-2019 -- (--) -- (--) -- -- (--) -- (--) -- -- -- -- --
01-07-2019 -- (--) -- (--) -- -- (--) -- (--) -- -- -- -- --
30-06-2019 40.2 (16:50) 13.7 (00:00) 27 12.78 (23:40) 9.17 (18:30) -- -- -- -- --
29-06-2019 41.3 (15:10) 14.6 (00:00) 27.9 13.89 (19:20) 9.17 (19:40) -- -- -- -- --
28-06-2019 38.6 (16:20) 17.1 (00:00) 27.8 9.72 (01:10) 7.22 (01:10) -- -- -- -- --
27-06-2019 40.5 (15:50) 19.5 (00:00) 30 16.94 (22:30) 11.39 (22:10) 0 0 0 0 0
26-06-2019 37.6 (16:30) 15.8 (00:00) 26.7 14.44 (14:30) 8.61 (16:50) 0 0 0 0 0
25-06-2019 34.8 (17:00) 16.5 (00:00) 25.6 8.33 (00:10) 5.83 (16:20) 0 0 0 0 0
24-06-2019 32.4 (17:50) 14.7 (00:00) 23.6 12.78 (11:40) 8.61 (15:10) 0 0 0 0 0
23-06-2019 33.8 (18:20) 15.7 (00:00) 24.7 10.83 (01:50) 6.11 (20:30) 0 0 0 0 0
22-06-2019 30.4 (17:40) 7.1 (00:00) 18.7 6.11 (17:00) 3.61 (00:10) 0 0 0 0 0
21-06-2019 20 (16:20) 12.6 (00:00) 16.3 11.67 (15:50) 8.33 (15:50) 1.7 1.7 0 0 0
20-06-2019 22.3 (14:40) 13.9 (00:00) 18.1 12.78 (15:50) 9.44 (16:10) 1.4 0 0 0 1.4
19-06-2019 28.9 (16:10) 13.5 (00:00) 21.2 12.5 (21:20) 8.89 (21:10) 0 0 0 0 0
18-06-2019 33.7 (16:50) 14.4 (00:00) 24.1 16.11 (17:50) 11.39 (17:50) 0 0 0 0 0
17-06-2019 32.3 (18:40) 10.9 (00:00) 21.6 6.11 (14:40) 3.61 (16:20) 0 0 0 0 0
16-06-2019 29 (17:20) 6.7 (00:00) 17.8 7.78 (20:20) 5.28 (20:20) 0 0 0 0 0

Gráficas

Temp. máximas Temp. mínimas Temp. medias Precipitaciones Rachas de viento máximas Velocidades máximas media en intervalos de 10 minutos

Datos horarios

Fecha y hora oficial Temperatura (ºC) Velocidad del viento (km/h) Dirección del viento Racha (km/h) Dirección de racha Precipitación (mm) Presión (hPa) Tendencia (hPa) Humedad (%)
2019-07-15 23:00:00 17.2 23 Norte 39 Norte 0 964.8 1.6 70
2019-07-15 22:00:00 18.6 24 Norte 41 Norte 0 964.4 1.3 67
2019-07-15 21:00:00 20.1 28 Norte 48 Norte 0 964 1 57
2019-07-15 20:00:00 21.6 30 Norte 45 Norte 0 963.2 0.3 55
2019-07-15 19:00:00 23.2 29 Norte 46 Norte 0 963.1 0.2 51
2019-07-15 18:00:00 24.1 33 Norte 50 Norte 0 963 0.1 48
2019-07-15 17:00:00 24.9 31 Norte 50 Norte 0 962.9 0.1 44
2019-07-15 16:00:00 25.4 30 Norte 45 Norte 0 962.9 -0.3 41
2019-07-15 15:00:00 26.1 29 Norte 50 Noroeste 0 962.9 -0.2 41
2019-07-15 14:00:00 25.4 31 Norte 46 Norte 0 962.8 -0.3 42
2019-07-15 13:00:00 25.1 28 Norte 46 Norte 0 963.2 0 43
2019-07-15 12:00:00 24.2 29 Norte 46 Norte 0 963.1 -0.2 45
2019-07-15 11:00:00 23.4 27 Norte 37 Noroeste 0 963.1 -0.1 51
2019-07-15 10:00:00 22 21 Norte 35 Noroeste 0 963.2 0.3 59
2019-07-15 09:00:00 20.3 18 Norte 28 Norte 0 963.3 0.6 68
2019-07-15 08:00:00 17.7 6 Oeste 13 Oeste 0 963.2 0.5 79
2019-07-15 07:00:00 15.4 10 Oeste 18 Oeste 0 962.9 0 86
2019-07-15 06:00:00 15.7 14 Oeste 18 Oeste 0 962.7 -0.7 86
2019-07-15 05:00:00 15.7 12 Noroeste 26 Norte 0 962.7 -1 85
2019-07-15 04:00:00 16.5 20 Norte 30 Norte 0 962.9 -1 83
2019-07-15 03:00:00 15.8 9 Oeste 15 Noroeste 0 963.4 -0.6 84
2019-07-15 02:00:00 16.5 6 Oeste 22 Norte 0 963.7 -0.3 78
2019-07-15 01:00:00 17.1 17 Norte 26 Noroeste 0 963.9 0.2 74
2019-07-15 00:00:00 17.8 19 Noroeste 32 Norte 0 964 0.8 70
2019-07-14 23:00:00 18.5 20 Norte 30 Norte 0 964 1.2 61
2019-07-14 22:00:00 19.6 17 Norte 35 Norte 0 963.7 1.3 60
2019-07-14 21:00:00 21.3 27 Norte 41 Norte 0 963.2 0.6 55
2019-07-14 20:00:00 22.8 29 Norte 45 Noroeste 0 962.8 0.4 49
2019-07-14 19:00:00 23.8 28 Norte 45 Norte 0 962.4 0.2 48
2019-07-14 18:00:00 24.6 32 Norte 45 Noroeste 0 962.6 0.1 45
2019-07-14 17:00:00 25.8 32 Norte 48 Norte 0 962.4 -0.2 45
2019-07-14 16:00:00 25.7 29 Norte 45 Noroeste 0 962.2 -0.2 46
2019-07-14 15:00:00 26.6 26 Noroeste 42 Norte 0 962.5 0.1 46
2019-07-14 14:00:00 25.9 25 Norte 45 Norte 0 962.6 0.5 47
2019-07-14 13:00:00 25.1 27 Norte 46 Noroeste 0 962.4 0.3 51
2019-07-14 12:00:00 24.2 33 Norte 46 Norte 0 962.4 1 53
2019-07-14 11:00:00 23.6 31 Norte 41 Norte 0 962.1 0.9 59
2019-07-14 10:00:00 22.9 25 Noroeste 33 Noroeste 0 962.1 -0.2 63
2019-07-14 09:00:00 20.4 16 Noroeste 22 Noroeste 0 961.4 -1.4 76
2019-07-14 08:00:00 18.8 10 Noroeste 18 Norte 0 961.2 -0.7 82
2019-07-14 07:00:00 18 10 Noroeste 18 Norte 0 962.3 0.3 83
2019-07-14 06:00:00 18.4 12 Noroeste 26 Noroeste 0 962.8 -1.6 81
2019-07-14 05:00:00 18.5 18 Norte 39 Norte 0 961.9 -2 80
2019-07-14 04:00:00 18.6 21 Norte 30 Norte 0 962 -3.1 81
2019-07-14 03:00:00 19.4 13 Noroeste 33 Norte 0 964.4 0.9 78
2019-07-14 02:00:00 19.3 23 Norte 37 Norte 0 963.9 0.6 79
2019-07-14 01:00:00 19.5 24 Noroeste 46 Norte 0 965.1 3.7 83
2019-07-14 00:00:00 19.9 31 Norte 46 Noroeste 0 963.5 2.3 84
2019-07-13 23:00:00 20.6 23 Noroeste 35 Noroeste 0.5 963.3 3.2 84
2019-07-13 22:00:00 21.5 25 Noroeste 33 Noroeste 0 961.4 1.3 78
2019-07-13 21:00:00 22.4 16 Noroeste 32 Norte 0 961.2 1 75
2019-07-13 20:00:00 23.4 23 Norte 45 Norte 0 960.1 -3.5 72
2019-07-13 19:00:00 26 20 Noroeste 37 Nordeste 0 960.1 -3.1 59
2019-07-13 18:00:00 25.6 17 Sudeste 67 Norte 0 960.2 -3.8 57
2019-07-13 17:00:00 27.4 17 Noroeste 26 Noroeste 0 963.6 -0.7 53
2019-07-13 16:00:00 29.2 15 Noroeste 33 Norte 0 963.2 -0.8 48
2019-07-13 15:00:00 27.9 21 Noroeste 30 Norte 0 964 -1.4 49
2019-07-13 14:00:00 28 18 Noroeste 32 Noroeste 0 964.3 -1.2 52
2019-07-13 13:00:00 25.1 13 Norte 28 Norte 0 964 -1.3 59
2019-07-13 12:00:00 24.6 10 Noroeste 21 Noroeste 0 965.4 0 57
2019-07-13 11:00:00 24.1 12 Noroeste 26 Norte 0 965.5 0.1 59
2019-07-13 10:00:00 22.1 12 Noroeste 26 Norte 0 965.3 -0.3 64
2019-07-13 09:00:00 20 16 Norte -- -- -- 965.4 -0.3 67
2019-07-13 08:00:00 18.3 12 Norte 18 Norte 0 965.4 -0.4 73
2019-07-13 07:00:00 16.1 14 Noroeste 18 Noroeste 0 965.6 -0.5 79
2019-07-13 06:00:00 16.4 15 Norte -- -- -- 965.7 -0.5 72
2019-07-13 05:00:00 16.8 12 Norte 22 Norte -- 965.8 -0.7 66
2019-07-13 04:00:00 17.3 16 Norte 30 Norte -- 966.1 -0.3 64
2019-07-13 03:00:00 17.7 19 Norte 32 Norte -- 966.2 -0.1 65
2019-07-13 02:00:00 17.9 17 Norte 35 Norte -- 966.5 0.5 73
2019-07-13 01:00:00 18.6 20 Norte 32 Noroeste -- 966.4 1.3 80
2019-07-13 00:00:00 19.5 22 Norte 33 Norte -- 966.3 1.9 80
2019-07-12 23:00:00 21.2 17 Noroeste 22 Noroeste -- 966 2.2 77
2019-07-12 22:00:00 22.7 17 Noroeste 26 Norte -- 965.1 1.4 71
2019-07-12 21:00:00 25 15 Noroeste 24 Norte -- 964.4 0.5 66
2019-07-12 20:00:00 27.8 15 Norte 30 Norte -- 963.8 -0.5 47
2019-07-12 19:00:00 28.8 17 Norte 32 Noroeste -- 963.7 -0.7 40
2019-07-12 18:00:00 30.5 22 Noroeste 35 Norte -- 963.9 -0.5 42
2019-07-12 17:00:00 31 23 Noroeste 33 Noroeste -- 964.3 -0.4 37
2019-07-12 16:00:00 31.5 23 Norte 35 Noroeste -- 964.4 -0.8 28
2019-07-12 15:00:00 32.2 18 Noroeste 30 Noroeste -- 964.4 -1 28
2019-07-12 14:00:00 31.2 14 Noroeste 28 Norte -- 964.7 -0.9 33
2019-07-12 13:00:00 29.4 13 Noroeste 22 Noroeste -- 965.2 -0.7 40
2019-07-12 12:00:00 26.6 8 Norte 21 Oeste -- 965.4 -0.4 47
2019-07-12 11:00:00 24.9 7 Noroeste 15 Norte -- 965.6 0.1 54
2019-07-12 10:00:00 22.4 4 Noroeste 8 Oeste -- 965.9 0.8 60
2019-07-12 09:00:00 19.2 6 Este 9 Nordeste -- 965.8 0.8 70
2019-07-12 08:00:00 17.1 2 Este 8 Nordeste -- 965.5 0.5 81
2019-07-12 07:00:00 14.2 6 Nordeste 9 Nordeste -- 965.1 0 89
2019-07-12 06:00:00 13.9 4 Este -- -- -- 965 -0.1 89
2019-07-12 05:00:00 14.7 5 Este 8 Sudeste -- 965 -0.3 86
2019-07-12 04:00:00 15.6 5 Sudeste 8 Sudeste -- 965.1 -0.1 87
2019-07-12 03:00:00 17 5 Oeste 9 Oeste -- 965.1 0.3 83
2019-07-12 02:00:00 18.6 12 Noroeste 21 Norte -- 965.3 0.7 77
2019-07-12 01:00:00 19.5 10 Norte 22 Noroeste -- 965.2 1.6 76
2019-07-12 00:00:00 20.4 15 Noroeste 22 Norte -- 964.8 1.9 74
2019-07-11 23:00:00 21.6 14 Noroeste 21 Norte -- 964.6 1.8 70
2019-07-11 22:00:00 23.3 15 Noroeste 28 Noroeste -- 963.6 0.8 60
2019-07-11 21:00:00 26.1 20 Noroeste 30 Noroeste -- 962.9 0.2 46
2019-07-11 20:00:00 28.2 15 Nordeste 24 Nordeste -- 962.8 -0.1 35
2019-07-11 19:00:00 29 15 Norte 33 Norte -- 962.8 -0.3 42
2019-07-11 18:00:00 29.6 17 Norte 33 Norte -- 962.7 -0.6 45
2019-07-11 17:00:00 30.1 18 Norte 32 Nordeste -- 962.9 -0.8 43
2019-07-11 16:00:00 30.6 15 Norte 30 Nordeste -- 963.1 -0.8 42
2019-07-11 15:00:00 30.3 15 Norte 30 Norte -- 963.3 -1.2 34
2019-07-11 14:00:00 29.6 13 Norte 26 Norte -- 963.7 -0.7 31
2019-07-11 13:00:00 28.4 9 Noroeste 22 Norte -- 963.9 -0.6 43
2019-07-11 12:00:00 26 6 Norte 17 Noroeste -- 964.5 0.1 55
2019-07-11 11:00:00 23.1 3 Oeste 11 Sudeste -- 964.4 0.1 62
2019-07-11 10:00:00 20.5 4 Noroeste 9 Oeste -- 964.5 0.6 70
2019-07-11 09:00:00 18.2 3 Norte 8 Norte -- 964.4 0.6 77
2019-07-11 08:00:00 14.9 3 Noroeste 9 Oeste -- 964.3 0.6 87
2019-07-11 07:00:00 12.6 0 Calma 5 Sudoeste -- 963.9 0 96
2019-07-11 06:00:00 13 4 Oeste 8 Sudeste -- 963.8 -0.2 93
2019-07-11 05:00:00 13.9 5 Sudeste -- -- -- 963.7 -0.5 95
2019-07-11 04:00:00 14 0 Calma 5 Sudoeste -- 963.9 -0.2 91
2019-07-11 03:00:00 15 0 Calma 8 Sudeste -- 964 -0.1 92
2019-07-11 02:00:00 15.9 7 Sudeste 9 Sudeste -- 964.2 0.1 89
2019-07-11 01:00:00 17.1 7 Sudeste 9 Sudeste -- 964.1 0.4 85
2019-07-11 00:00:00 18.3 0 Calma 17 Norte -- 964.1 0.5 78
2019-07-10 23:00:00 19.4 12 Norte 26 Norte -- 964.1 0.3 73
2019-07-10 22:00:00 20.6 17 Norte 30 Norte -- 963.7 0 70
2019-07-10 21:00:00 22.7 22 Noroeste 30 Noroeste -- 963.6 0.1 63
2019-07-10 20:00:00 24 22 Noroeste 41 Noroeste -- 963.8 0.5 59
2019-07-10 19:00:00 24.9 26 Norte 45 Norte -- 963.7 0.2 57
2019-07-10 18:00:00 26.1 28 Norte 39 Norte -- 963.5 -0.5 52
2019-07-10 17:00:00 27.4 22 Norte 33 Noroeste -- 963.3 -1.1 50
2019-07-10 16:00:00 27.7 12 Norte 30 Norte -- 963.5 -1.2 46
2019-07-10 15:00:00 27.9 21 Noroeste 35 Noroeste -- 964 -1 45
2019-07-10 14:00:00 27.4 26 Noroeste 37 Noroeste -- 964.4 -0.9 45
2019-07-10 13:00:00 26.8 22 Noroeste 35 Noroeste -- 964.7 -1 44
2019-07-10 12:00:00 25.5 18 Noroeste 30 Noroeste -- 965 -0.6 46
2019-07-10 11:00:00 22.7 13 Noroeste 24 Norte -- 965.3 0 50
2019-07-10 10:00:00 20.4 14 Norte 28 Norte -- 965.7 0.5 52
2019-07-10 09:00:00 18.7 13 Norte 21 Norte -- 965.6 0.5 55
2019-07-10 08:00:00 15.8 3 Norte 11 Noroeste -- 965.3 0 71
2019-07-10 07:00:00 13.1 5 Sudoeste 13 Oeste -- 965.2 -0.3 82
2019-07-10 06:00:00 13.4 0 Calma 21 Norte -- 965.1 -0.6 81
2019-07-10 05:00:00 14.3 15 Norte 22 Norte -- 965.3 -0.9 76
2019-07-10 04:00:00 15 10 Noroeste 24 Norte -- 965.5 -0.8 77
2019-07-10 03:00:00 14.8 5 Norte 22 Norte -- 965.7 -0.6 78
2019-07-10 02:00:00 15.4 13 Nordeste 24 Norte -- 966.2 -0.2 74
2019-07-10 01:00:00 15.8 13 Norte 28 Norte -- 966.3 0.9 74
2019-07-10 00:00:00 15.7 18 Norte 26 Noroeste -- 966.3 1.5 75
2019-07-09 23:00:00 16.2 12 Norte 24 Norte -- 966.4 2.2 74
2019-07-09 22:00:00 17 20 Norte 30 Norte -- 965.4 1.5 66
2019-07-09 21:00:00 18.5 22 Norte 39 Norte -- 964.8 1 62
2019-07-09 20:00:00 20 27 Norte 39 Norte -- 964.2 0.2 57
2019-07-09 19:00:00 21.7 26 Noroeste 39 Norte -- 963.9 0.1 52
2019-07-09 18:00:00 22.6 23 Norte 42 Noroeste -- 963.8 -0.2 55
2019-07-09 17:00:00 21 24 Norte 41 Norte -- 964 0.2 60
2019-07-09 16:00:00 21.3 28 Norte 39 Norte -- 963.8 -0.1 65
2019-07-09 15:00:00 19.5 27 Noroeste 39 Noroeste -- 964 0.8 75
2019-07-09 14:00:00 19.8 14 Noroeste 24 Noroeste -- 963.8 1.3 75
2019-07-09 13:00:00 18.4 18 Noroeste 28 Noroeste -- 963.9 1.6 80
2019-07-09 12:00:00 18.6 17 Noroeste 30 Noroeste -- 963.2 0.9 84
2019-07-09 11:00:00 20 24 Noroeste 37 Noroeste -- 962.5 -0.1 76
2019-07-09 10:00:00 19.2 16 Norte 26 Noroeste -- 962.3 -0.3 80
2019-07-09 09:00:00 18.2 12 Noroeste 17 Noroeste -- 962.3 -0.1 87
2019-07-09 08:00:00 16.5 13 Noroeste 22 Noroeste -- 962.6 -0.1 92
2019-07-09 07:00:00 16.3 15 Noroeste 33 Noroeste -- 962.6 -0.4 93
2019-07-09 06:00:00 16.1 5 Sudoeste 9 Sudoeste 0 962.4 -0.4 96
2019-07-09 05:00:00 15.6 8 Sur 9 Sur 0 962.7 -0.5 96
2019-07-09 04:00:00 15.3 2 Oeste 8 Noroeste 0 963 0.4 96
2019-07-09 03:00:00 16 8 Noroeste 17 Norte 0 962.8 -0.5 92
2019-07-09 02:00:00 16.3 8 Oeste 11 Oeste 0 963.2 -0.4 95
2019-07-09 01:00:00 16.3 4 Nordeste 32 Nordeste 0 962.6 -0.5 92
2019-07-09 00:00:00 16.8 9 Sudeste 15 Nordeste 0 963.3 0.3 97
2019-07-08 23:00:00 16.8 3 Sudoeste 15 Sudoeste 0 963.6 1.6 97
2019-07-08 22:00:00 16.8 7 Sudoeste 30 Norte 0 963.1 2.2 98
2019-07-08 21:00:00 17.2 13 Oeste 22 Nordeste 0 963 3.8 96
2019-07-08 20:00:00 17.2 13 Norte 50 Norte 0 962 2.3 97
2019-07-08 19:00:00 18.7 32 Noroeste 52 Noroeste 0.9 960.9 0.6 95
2019-07-08 18:00:00 19.8 24 Noroeste 37 Noroeste 4.4 959.2 -1.1 93
2019-07-08 17:00:00 23.5 26 Noroeste 39 Norte 0 959.7 -1.4 70
2019-07-08 16:00:00 24.6 15 Norte 37 Noroeste 0.1 960.3 -1.2 68
2019-07-08 15:00:00 24.5 26 Norte 39 Norte 0.1 960.3 -1.4 71
2019-07-08 14:00:00 25.5 22 Norte 32 Noroeste 0 961.1 -1.1 63
2019-07-08 13:00:00 26 18 Noroeste 30 Noroeste 0 961.5 -0.9 63
2019-07-08 12:00:00 25.7 12 Norte 22 Noroeste 0 961.7 -0.4 64
2019-07-08 11:00:00 24.2 12 Norte 28 Norte 0 962.2 0 68
2019-07-08 10:00:00 22.5 16 Norte 24 Norte 0 962.4 0.6 75
2019-07-08 09:00:00 21.2 5 Oeste 13 Oeste 0 962.1 0.3 79
2019-07-08 08:00:00 18.9 5 Oeste 13 Noroeste 0 962.2 -1.1 91
2019-07-08 07:00:00 17.7 4 Sudoeste 13 Este 0 961.8 -0.6 94
2019-07-08 06:00:00 18 6 Norte 37 Nordeste 1.5 961.8 0 91
2019-07-08 05:00:00 18.8 13 Noroeste 28 Noroeste 0.1 963.3 1.5 89
2019-07-08 04:00:00 19.2 18 Noroeste 30 Noroeste 0 962.4 0.4 85
2019-07-08 03:00:00 18.9 18 Noroeste 28 Norte 0 961.8 -0.3 85
2019-07-08 02:00:00 18.6 18 Norte 30 Norte 0 961.8 0.1 86
2019-07-08 01:00:00 19 18 Noroeste 28 Noroeste 0 962 0.7 84
2019-07-08 00:00:00 19.2 19 Noroeste 30 Noroeste 0 962.1 0.9 82
2019-07-07 23:00:00 19.8 19 Noroeste 33 Noroeste 0 961.7 0.8 79
2019-07-07 22:00:00 20.4 24 Noroeste 37 Norte 0 961.3 0.9 76
2019-07-07 21:00:00 22.1 24 Noroeste 39 Noroeste 0 961.2 1 69
2019-07-07 20:00:00 23.5 30 Noroeste 46 Noroeste 0 960.9 0.4 63
2019-07-07 19:00:00 25.2 34 Norte 48 Norte 0 960.4 -0.8 57
2019-07-07 18:00:00 27.9 30 Norte 41 Norte 0 960.2 -1.8 52
2019-07-07 17:00:00 30.1 26 Noroeste 33 Noroeste 0 960.5 -2.1 45
2019-07-07 16:00:00 30.3 18 Noroeste 30 Noroeste 0 961.2 -1.7 43
2019-07-07 15:00:00 29.6 16 Noroeste 30 Noroeste 0 962 -1.3 45
2019-07-07 14:00:00 27.5 12 Norte 22 Norte 0 962.6 -0.8 53
2019-07-07 13:00:00 26.8 14 Noroeste 24 Noroeste 0 962.9 -0.7 55
2019-07-07 12:00:00 24.9 13 Noroeste 26 Noroeste 0 963.3 -0.3 59
2019-07-07 11:00:00 23.3 20 Noroeste 30 Noroeste 0 963.4 0 63
2019-07-07 10:00:00 20.6 18 Norte 30 Norte 0 963.6 0.7 73
2019-07-07 09:00:00 19.2 17 Noroeste 30 Norte 0 963.6 1.1 78
2019-07-07 08:00:00 18.7 17 Noroeste 28 Noroeste 0 963.4 1.2 80
2019-07-07 07:00:00 18.3 18 Noroeste 30 Norte 0 962.9 0.3 82
2019-07-07 06:00:00 18.3 19 Noroeste 33 Norte 0 962.5 -0.1 82
2019-07-07 05:00:00 18.5 24 Noroeste 33 Norte 0 962.2 -0.4 82
2019-07-07 04:00:00 18.5 24 Noroeste 35 Noroeste 0 962.6 0.2 84
2019-07-07 03:00:00 19 24 Noroeste 35 Norte 0 962.6 0.2 81
2019-07-07 02:00:00 19.4 27 Norte 37 Norte 0 962.6 0.7 79
2019-07-07 01:00:00 19.9 23 Noroeste 35 Norte 0 962.4 1.3 77
2019-07-07 00:00:00 20.5 23 Norte 37 Norte 0 962.4 1.8 79
2019-07-06 23:00:00 20.3 24 Noroeste 37 Noroeste 0 961.9 1.8 81
2019-07-06 22:00:00 20.8 27 Noroeste 42 Norte 0 961.1 1.4 79
2019-07-06 21:00:00 22.8 31 Noroeste 42 Noroeste 0 960.6 1 72
2019-07-06 20:00:00 26.4 25 Noroeste 39 Norte 0 960.1 0.9 59
2019-07-06 19:00:00 28.9 30 Norte 48 Norte 0 959.7 0 44
2019-07-06 18:00:00 30.9 31 Norte 46 Noroeste 0 959.6 -0.6 39
2019-07-06 17:00:00 34.8 17 Noroeste 35 Sur 0 959.2 -1.8 33
2019-07-06 16:00:00 34.3 14 Sur 24 Sur 0 959.7 -1.8 22
2019-07-06 15:00:00 34.5 11 Oeste 33 Este 0 960.2 -1.9 29
2019-07-06 14:00:00 32.6 10 Norte 24 Norte 0 961 -1.8 32
2019-07-06 13:00:00 30.1 6 Norte 17 Oeste 0 961.5 -1.6 46
2019-07-06 12:00:00 27.8 6 Noroeste 13 Noroeste 0 962.1 -1.2 52
2019-07-06 11:00:00 25.3 7 Este 15 Nordeste 0 962.8 -0.5 61
2019-07-06 10:00:00 23.1 7 Norte 13 Norte 0 963.1 -0.1 69
2019-07-06 09:00:00 21.6 5 Este 13 Nordeste 0 963.3 0.2 75
2019-07-06 08:00:00 19.4 8 Nordeste 11 Nordeste 0 963.3 0.3 84
2019-07-06 07:00:00 19 9 Noroeste 15 Norte 0 963.2 0.4 86
2019-07-06 06:00:00 19.1 10 Noroeste 18 Norte 0 963.1 0.6 87
2019-07-06 05:00:00 19.2 13 Norte 30 Noroeste 0 963 0.3 87
2019-07-06 04:00:00 19.9 21 Noroeste 30 Norte 0 962.8 0.3 83
2019-07-06 03:00:00 19.8 8 Noroeste 11 Noroeste 0 962.5 0.4 80
2019-07-06 02:00:00 20.3 4 Noroeste 9 Noroeste 0 962.7 0.7 76
2019-07-06 01:00:00 21.3 3 Sudoeste 5 Sudoeste 0 962.5 1.1 73
2019-07-06 00:00:00 22.2 4 Oeste 13 Noroeste 0 962.1 0.9 70
2019-07-05 23:00:00 23.7 7 Oeste 28 Noroeste 0 962 1 64
2019-07-05 22:00:00 25.5 12 Noroeste 24 Noroeste 0 961.4 0.3 59
2019-07-05 21:00:00 27.4 19 Noroeste 32 Noroeste 0 961.2 -0.2 55
2019-07-05 20:00:00 29.2 24 Noroeste 37 Noroeste 0 961 -0.3 53
2019-07-05 19:00:00 30.1 22 Noroeste 37 Noroeste 0 961.1 -0.7 52
2019-07-05 18:00:00 31.5 31 Noroeste 46 Norte 0 961.4 -1 50
2019-07-05 17:00:00 35.5 11 Sudeste 26 Sur 0 961.3 -1.6 26
2019-07-05 16:00:00 35.1 13 Sur 30 Sur 0 961.8 -1.9 26
2019-07-05 15:00:00 34.4 10 Sur 28 Sur 0 962.4 -1.4 28
2019-07-05 14:00:00 33.6 13 Sudeste 24 Sudeste 0 962.9 -1 30
2019-07-05 13:00:00 32.9 13 Sudoeste 32 Sur 0 963.7 -0.5 29
2019-07-05 12:00:00 32.1 20 Sudoeste 30 Sur 0 963.8 -0.4 30
2019-07-05 11:00:00 30.4 13 Sudeste 28 Sudeste 0 963.9 -0.3 35
2019-07-05 10:00:00 29 9 Sudeste 18 Sudeste 0 964.2 0.1 39
2019-07-05 09:00:00 27.4 9 Sudeste 18 Sur 0 964.2 0 41
2019-07-05 08:00:00 23.9 13 Sudeste 28 Sudeste 0 964.2 0.2 49
2019-07-05 07:00:00 20.1 7 Sudeste 11 Sur 0 964.1 0.4 52
2019-07-05 06:00:00 21.8 2 Oeste 33 Norte 0 964.2 0.3 43
2019-07-05 05:00:00 23.2 5 Oeste 26 Sur 0 964 -0.1 38
2019-07-05 04:00:00 26.5 14 Sur 42 Sudeste 0 963.7 -0.4 31
2019-07-05 03:00:00 26.6 29 Sudeste 42 Sur 0 963.9 0.5 31
2019-07-05 02:00:00 26.9 22 Sudeste 39 Sudeste 0 964.1 1.2 28
2019-07-05 01:00:00 26.9 17 Sudeste 28 Sudeste 0 964.1 1.9 33
2019-07-05 00:00:00 25.6 3 Sudoeste 15 Oeste 0 963.4 1.6 39
2019-07-04 23:00:00 25.8 7 Sudeste 13 Sudeste 0 962.9 1.6 38
2019-07-04 22:00:00 28.4 11 Sudeste 21 Sudeste 0 962.2 0.9 31
2019-07-04 21:00:00 31.7 17 Este 22 Sudeste 0 961.8 0.1 27
2019-07-04 20:00:00 33.2 9 Sudeste 24 Sudeste 0 961.3 -0.5 25
2019-07-04 19:00:00 33.5 17 Sur 30 Sur 0 961.3 -0.9 25
2019-07-04 18:00:00 34.7 20 Sur 30 Sudeste 0 961.7 -0.8 22
2019-07-04 17:00:00 34.9 14 Sudeste 37 Sudeste 0 961.8 -1.6 20
2019-07-04 16:00:00 34.6 14 Sudeste 33 Sudeste 0 962.2 -1.8 22
2019-07-04 15:00:00 34 10 Sudeste 28 Este 0 962.5 -1.7 26
2019-07-04 14:00:00 33.3 17 Sudeste 37 Este 0 963.4 -1.2 28
2019-07-04 13:00:00 31.8 15 Este 26 Este 0 964 -0.8 31
2019-07-04 12:00:00 29.9 6 Nordeste 13 Nordeste -- 964.2 -0.5 40
2019-07-04 11:00:00 27.9 3 Noroeste 11 Norte -- 964.6 0.3 47
2019-07-04 10:00:00 26.2 6 Noroeste 13 Oeste -- 964.8 0.7 61
2019-07-04 09:00:00 21.9 5 Norte 9 Noroeste -- 964.7 0.9 81
2019-07-04 08:00:00 18.2 3 Sudoeste 9 Sur -- 964.3 0.6 91
2019-07-04 07:00:00 18.1 6 Sur -- -- -- 964.1 0.5 93
2019-07-04 06:00:00 18.6 4 Sudoeste 5 Sudoeste -- 963.8 0.1 94
2019-07-04 05:00:00 19 0 Calma 9 Oeste -- 963.7 0.4 94
2019-07-04 04:00:00 19.9 4 Oeste 13 Oeste -- 963.6 -0.1 92
2019-07-04 03:00:00 20.7 7 Oeste 13 Noroeste -- 963.7 0.1 90
2019-07-04 02:00:00 21.8 6 Sudoeste 11 Oeste -- 963.3 0.2 86
2019-07-04 01:00:00 22.7 7 Oeste 17 Oeste -- 963.7 1.4 82
2019-07-04 00:00:00 23.6 5 Sudoeste 21 Norte -- 963.6 2.1 78
2019-07-03 23:00:00 24.2 13 Noroeste 22 Noroeste -- 963.1 2.1 75
2019-07-03 22:00:00 25.3 13 Noroeste 22 Noroeste -- 962.3 1.9 70
2019-07-03 21:00:00 27.5 10 Oeste 24 Norte -- 961.5 1.2 63
2019-07-03 20:00:00 28.8 14 Noroeste 24 Norte -- 961 0.4 60
2019-07-03 19:00:00 31.1 21 Noroeste 35 Norte -- 960.4 -0.4 50
2019-07-03 18:00:00 33.6 8 Este 24 Sudeste -- 960.3 -1.3 27
2019-07-03 17:00:00 34.2 8 Este 24 Sudeste -- 960.6 -1.8 27
2019-07-03 16:00:00 33.9 13 Sudeste 26 Sudeste -- 960.8 -2.6 27
2019-07-03 15:00:00 33.7 12 Sur 35 Este -- 961.6 -2.4 28
2019-07-03 14:00:00 31.3 22 Sudeste 33 Este -- 962.4 -2.1 35
2019-07-03 13:00:00 27.2 3 Nordeste 18 Nordeste 0 963.4 -1.5 53
2019-07-03 12:00:00 21.3 5 Sudoeste 17 Sur 0 964 -0.2 77
2019-07-03 11:00:00 19.4 11 Sudeste 15 Sudeste 0 964.5 0.6 83
2019-07-03 10:00:00 19.6 2 Sudoeste 13 Noroeste 0 964.9 1.3 80
2019-07-03 09:00:00 18.4 2 Nordeste 11 Norte 0 964.2 0.4 84
2019-07-03 08:00:00 17.5 3 Oeste 5 Noroeste 0 963.9 0.3 88
2019-07-03 07:00:00 16.6 3 Oeste 8 Oeste 0 963.6 -0.2 92
2019-07-03 06:00:00 16 5 Noroeste 8 Noroeste 0 963.8 -0.5 92
2019-07-03 05:00:00 16.7 0 Calma 5 Nordeste 0 963.6 -0.5 89
2019-07-03 04:00:00 17 6 Norte 13 Noroeste 0 963.8 -0.7 89
2019-07-03 03:00:00 17.2 9 Noroeste 15 Noroeste 0 964.3 -0.1 88
2019-07-03 02:00:00 17.1 10 Noroeste 21 Noroeste 0 964.1 -0.3 88
2019-07-03 01:00:00 17.5 13 Noroeste 24 Noroeste 0 964.5 0.8 87
2019-07-03 00:00:00 17.8 15 Noroeste 30 Norte 0 964.4 1.2 86
2019-07-02 23:00:00 18.6 20 Noroeste 32 Norte 0 964.4 1.6 82
2019-07-02 22:00:00 19.4 20 Noroeste 33 Noroeste 0 963.7 0.9 79
2019-07-02 21:00:00 21 26 Norte 41 Noroeste 0 963.2 0 74
2019-07-02 20:00:00 23.7 26 Noroeste 37 Noroeste 0 962.8 -0.5 64
2019-07-02 19:00:00 24.4 24 Noroeste 39 Noroeste 0 962.8 -0.8 61
2019-07-02 18:00:00 24.2 28 Norte 41 Norte 0 963.2 -1 60
2019-07-02 17:00:00 26.2 29 Norte 37 Norte 0 963.3 -1.4 56
2019-07-02 16:00:00 27.2 22 Norte 32 Noroeste 0 963.6 -1.9 54
2019-07-02 15:00:00 27 14 Noroeste 28 Noroeste 0 964.2 -1.8 55
2019-07-02 14:00:00 25.5 12 Norte 22 Norte 0 964.7 -1.4 58
2019-07-02 13:00:00 23.1 5 Norte 17 Nordeste 0 965.5 -1 66
2019-07-02 12:00:00 20.6 8 Nordeste 15 Nordeste 0 966 -0.6 76
2019-07-02 11:00:00 18.5 5 Este 11 Norte 0 966.1 -0.6 82
2019-07-02 10:00:00 17.2 9 Norte 17 Norte 0 966.5 0 88
2019-07-02 09:00:00 16.3 5 Sudoeste 22 Nordeste 0 966.6 -- 93
2019-07-02 08:00:00 15.7 10 Noroeste 21 Norte 0 966.7 -- 94
2019-07-02 07:00:00 16 10 Norte -- -- -- 966.5 -- 89
2019-07-02 06:00:00 -- -- -- -- -- -- -- -- --
2019-07-02 05:00:00 -- -- -- -- -- -- -- -- --
2019-07-02 04:00:00 -- -- -- -- -- -- -- -- --
2019-07-02 03:00:00 -- -- -- -- -- -- -- -- --
2019-07-02 02:00:00 -- -- -- -- -- -- -- -- --
2019-07-02 01:00:00 -- -- -- -- -- -- -- -- --
2019-07-02 00:00:00 -- -- -- -- -- -- -- -- --
2019-07-01 23:00:00 16.3 13 Norte 30 Norte 0 969.8 2.2 85
2019-07-01 22:00:00 17 19 Norte 35 Norte 0 968.8 2.1 74
2019-07-01 21:00:00 18 26 Norte 45 Norte 0 968.8 2.2 65
2019-07-01 20:00:00 18.2 30 Norte 45 Norte 0 967.6 0.9 70
2019-07-01 19:00:00 19.8 30 Norte 52 Norte 0 966.7 -0.1 64
2019-07-01 18:00:00 20.2 35 Norte 52 Norte 0 966.6 -0.1 66
2019-07-01 17:00:00 20.9 35 Norte 50 Norte 0 966.7 0 65
2019-07-01 16:00:00 22.2 37 Norte 48 Norte 0 966.8 -0.3 62
2019-07-01 15:00:00 24.6 34 Noroeste 46 Noroeste 0 966.7 -0.8 55
2019-07-01 14:00:00 25.2 30 Noroeste 39 Norte 0 966.7 -1 54
2019-07-01 13:00:00 24.5 27 Noroeste 39 Noroeste 0 967.1 -0.7 56
2019-07-01 12:00:00 23.2 25 Noroeste 33 Noroeste 0 967.5 -0.4 60
2019-07-01 11:00:00 21.4 25 Noroeste 32 Noroeste 0 967.7 0 65
2019-07-01 10:00:00 21 18 Noroeste 26 Norte 0 967.8 0 66
2019-07-01 09:00:00 18 15 Noroeste 33 Norte 0 967.9 0.2 76
2019-07-01 08:00:00 17.9 15 Norte 24 Norte 0 967.7 0.4 79
2019-07-01 07:00:00 17.1 12 Noroeste 21 Noroeste 0 967.8 0.6 82
2019-07-01 06:00:00 16.7 12 Noroeste 24 Norte 0 967.7 0.8 84
2019-07-01 05:00:00 16.8 16 Norte 28 Noroeste 0 967.3 0.5 83
2019-07-01 04:00:00 16.7 18 Norte 30 Norte 0 967.2 0.2 83
2019-07-01 03:00:00 16.7 17 Norte 30 Norte 0 966.9 0.2 84
2019-07-01 02:00:00 16.7 22 Norte 33 Noroeste 0 966.8 1.3 85
2019-07-01 01:00:00 17.3 20 Norte 35 Noroeste 0 967 2.6 83
2019-07-01 00:00:00 18.6 23 Norte 46 Noroeste 0 966.7 2.2 81
2019-06-30 23:00:00 20.1 14 Nordeste 45 Noroeste 0 965.5 2.2 77
2019-06-30 22:00:00 21.3 12 Norte 32 Norte 0 964.4 1.9 76
2019-06-30 21:00:00 23.3 14 Noroeste 26 Norte 0 964.5 3.1 70
2019-06-30 20:00:00 24.7 23 Noroeste 37 Norte 0 963.3 1.4 65
2019-06-30 19:00:00 27.3 28 Noroeste 45 Norte 0 962.5 0 58
2019-06-30 18:00:00 39.6 19 Sudeste 33 Sur 0 961.4 -1.6 11
2019-06-30 17:00:00 39.9 17 Sur 37 Sur 0 961.9 -2 11
2019-06-30 16:00:00 39.5 24 Sudeste 37 Sur 0 962.5 -2.2 11
2019-06-30 15:00:00 38.3 16 Sur 30 Sur 0 963 -2.3 17
2019-06-30 14:00:00 35.3 8 Sudeste 17 Sudeste 0 963.9 -1.9 24
2019-06-30 13:00:00 31.4 4 Este 13 Noroeste 0 964.7 -1.5 38
2019-06-30 12:00:00 27.4 5 Noroeste 15 Noroeste 0 965.3 -0.9 47
2019-06-30 11:00:00 24.2 6 Noroeste 15 Noroeste 0 965.8 -0.6 57
2019-06-30 10:00:00 21.3 4 Norte 13 Nordeste 0 966.2 -0.1 67
2019-06-30 09:00:00 19 0 Calma 8 Este 0 966.2 0.2 73
2019-06-30 08:00:00 17.1 2 Sudeste 5 Este 0 966.4 0.9 82
2019-06-30 07:00:00 14 3 Sudeste 9 Oeste 0 966.3 0.8 92
2019-06-30 06:00:00 14.3 8 Noroeste 11 Noroeste 0 966 0.3 91
2019-06-30 05:00:00 15.3 0 Calma 9 Norte 0 965.5 -0.3 88
2019-06-30 04:00:00 15.3 2 Noroeste 11 Noroeste 0 965.5 -0.4 88
2019-06-30 03:00:00 15.8 6 Noroeste 9 Noroeste 0 965.7 0 87
2019-06-30 02:00:00 16.3 5 Noroeste 9 Norte 0 965.8 0.6 84
2019-06-30 01:00:00 16.9 12 Norte 24 Norte 0 965.9 1.8 83
2019-06-30 00:00:00 17.7 12 Noroeste 24 Noroeste 0 965.7 2.4 80
2019-06-29 23:00:00 18.6 16 Noroeste 26 Norte 0 965.2 3 78
2019-06-29 22:00:00 19.9 18 Noroeste 33 Noroeste 0 964.1 3.5 75
2019-06-29 21:00:00 23 27 Noroeste 45 Norte 0 963.3 2.3 67
2019-06-29 20:00:00 28.6 28 Noroeste 50 Noroeste 0 962.2 0.9 54
2019-06-29 19:00:00 39.4 14 Este 32 Sudeste 0 960.6 -1 9
2019-06-29 18:00:00 39.8 19 Sudeste 35 Sudeste 0 961 -1.1 10
2019-06-29 17:00:00 40.5 19 Sur 39 Sudeste 0 961.3 -1.1 9
2019-06-29 16:00:00 40.8 18 Sur 35 Sur 0 961.6 -1.2 10
2019-06-29 15:00:00 40.6 17 Sudoeste 35 Sudoeste 0 962.1 -1.2 10
2019-06-29 14:00:00 40.1 21 Sudoeste -- -- -- 962.4 -1.3 10
2019-06-29 13:00:00 37.3 10 Sudeste 21 Sudeste 0 962.8 -1.1 20
2019-06-29 12:00:00 34 2 Sudeste 9 Este 0 963.3 -0.5 27
2019-06-29 11:00:00 29.7 3 Noroeste 11 Noroeste 0 963.7 0 36
2019-06-29 10:00:00 25.9 0 Calma 8 Nordeste 0 963.9 0.2 48
2019-06-29 09:00:00 21.7 3 Noroeste 5 Oeste 0 963.8 0.4 61
2019-06-29 08:00:00 18.1 0 Calma 9 Sur 0 963.7 0.2 77
2019-06-29 07:00:00 14.7 0 Calma 5 Sudeste 0 963.7 0.1 84
2019-06-29 06:00:00 15.4 0 Calma 8 Sur 0 963.4 -0.4 85
2019-06-29 05:00:00 16.2 3 Sudoeste 5 Sudoeste 0 963.5 -0.6 83
2019-06-29 04:00:00 17.1 0 Calma 5 Sudoeste 0 963.6 -0.6 83
2019-06-29 03:00:00 18.8 0 Calma 5 Sur 0 963.8 -0.4 76
2019-06-29 02:00:00 20.2 3 Sur 5 Sur 0 964.1 0 73
2019-06-29 01:00:00 21.9 0 Calma 5 Este 0 964.2 0.7 74
2019-06-29 00:00:00 24 2 Nordeste 9 Norte 0 964.2 0.8 66
2019-06-28 23:00:00 24.9 8 Oeste 13 Oeste 0 964.1 1.2 66
2019-06-28 22:00:00 27.6 12 Oeste 17 Noroeste 0 963.5 0.7 57
2019-06-28 21:00:00 31.6 12 Noroeste 18 Noroeste 0 963.4 0.4 50
2019-06-28 20:00:00 34.3 14 Noroeste 24 Norte 0 962.9 -0.5 45
2019-06-28 19:00:00 35.3 16 Norte 24 Norte 0 962.8 -1 39
2019-06-28 18:00:00 37.6 17 Noroeste 24 Noroeste 0 963 -1.5 34
2019-06-28 17:00:00 37.7 16 Norte 28 Noroeste 0 963.4 -1.8 33
2019-06-28 16:00:00 37.8 9 Norte 17 Noroeste 0 963.8 -2.2 26
2019-06-28 15:00:00 36.5 6 Norte 22 Norte 0 964.5 -2.2 28
2019-06-28 14:00:00 34.5 9 Norte 15 Norte 0 965.2 -1.8 32
2019-06-28 13:00:00 32.1 5 Norte 13 Norte 0 966 -1.4 35
2019-06-28 12:00:00 29.5 8 Noroeste 13 Oeste 0 966.7 -0.5 42
2019-06-28 11:00:00 26.5 5 Norte 13 Oeste 0 967 0.3 48
2019-06-28 10:00:00 24.2 4 Norte 15 Noroeste 0 967.4 1.1 54
2019-06-28 09:00:00 22.4 3 Oeste 11 Oeste 0 967.2 1.4 58
2019-06-28 08:00:00 18.8 4 Oeste 9 Oeste 0 966.7 1.2 73
2019-06-28 07:00:00 17.2 7 Oeste 13 Oeste 0 966.3 0.9 70
2019-06-28 06:00:00 19.2 0 Calma 8 Este 0 965.8 0.6 56
2019-06-28 05:00:00 21 0 Calma 9 Norte 0 965.5 0.2 49
2019-06-28 04:00:00 22.5 8 Norte 13 Oeste 0 965.4 0 45
2019-06-28 03:00:00 26.4 4 Norte 11 Nordeste 0 965.2 0 32
2019-06-28 02:00:00 28.3 0 Calma 35 Sudeste 0 965.3 0.7 28
2019-06-28 01:00:00 30.8 25 Sudeste 33 Sudeste 0 965.4 1.7 23
2019-06-28 00:00:00 32.7 15 Este 45 Sudeste 0 965.2 2 21
2019-06-27 23:00:00 33.9 29 Este 61 Este 0 964.6 1.6 20
2019-06-27 22:00:00 34.8 37 Este 54 Este 0 963.7 0.8 18
2019-06-27 21:00:00 35.5 34 Este 48 Este 0 963.2 -0.3 18
2019-06-27 20:00:00 36.5 30 Sudeste 46 Sudeste 0 963 -1 16
2019-06-27 19:00:00 38.5 35 Sudeste 52 Sudeste 0 962.9 -1.5 14
2019-06-27 18:00:00 38.6 26 Sudeste 46 Sudeste 0 963.5 -1.6 14
2019-06-27 17:00:00 37.9 21 Sudeste 48 Sur 0 964 -2 15
2019-06-27 16:00:00 39.8 33 Sur 58 Sudeste 0 964.4 -2.4 13
2019-06-27 15:00:00 37.4 9 Noroeste -- -- -- 965.1 -2.3 23
2019-06-27 14:00:00 33.3 9 Noroeste 15 Norte 0 966 -1.8 35
2019-06-27 13:00:00 30.9 10 Norte 15 Norte 0 966.8 -1.3 39
2019-06-27 12:00:00 30.1 3 Norte 8 Norte 0 967.4 -0.7 35
2019-06-27 11:00:00 27.4 3 Sur 11 Nordeste 0 967.8 -0.2 41
2019-06-27 10:00:00 24 4 Nordeste 8 Nordeste 0 968.1 0.7 48
2019-06-27 09:00:00 22.5 0 Calma 11 Este 0 968.1 1 49
2019-06-27 08:00:00 20.4 6 Este 11 Este 0 968 1.2 57
2019-06-27 07:00:00 20.1 4 Nordeste 18 Nordeste 0 967.4 0.8 51
2019-06-27 06:00:00 20.5 12 Oeste 17 Oeste 0 967.1 0.8 50
2019-06-27 05:00:00 22.2 6 Oeste 24 Noroeste 0 966.8 1.2 45
2019-06-27 04:00:00 23 12 Noroeste 22 Noroeste 0 966.6 1.7 42
2019-06-27 03:00:00 24.4 10 Noroeste 24 Norte 0 966.3 1.6 39
2019-06-27 02:00:00 26.5 10 Noroeste 24 Noroeste 0 965.6 1.3 32
2019-06-27 01:00:00 29.6 8 Este 22 Este 0 964.9 1.5 24
2019-06-27 00:00:00 29.6 14 Nordeste 32 Este 0 964.7 1.8 26
2019-06-26 23:00:00 31.5 12 Este 46 Sudeste 0 964.3 1.8 23
2019-06-26 22:00:00 31.2 9 Nordeste 17 Este 0 963.4 1.5 26
2019-06-26 21:00:00 33.3 9 Norte 26 Sur 0 962.9 0.7 27
2019-06-26 20:00:00 35.6 9 Nordeste 41 Este 0 962.5 -0.1 23
2019-06-26 19:00:00 36.8 19 Sudeste 41 Sudeste 0 961.9 -1.2 22
2019-06-26 18:00:00 36.8 22 Sudeste 45 Sudeste 0 962.2 -1.2 23
2019-06-26 17:00:00 37 28 Sur 45 Sur 0 962.6 -1.2 22
2019-06-26 16:00:00 36.8 26 Sur 42 Sur 0 963.1 -1.2 22
2019-06-26 15:00:00 36.2 22 Sur 52 Sur 0 963.4 -1.6 22
2019-06-26 14:00:00 36.1 30 Sur 45 Sur 0 963.8 -1.2 21
2019-06-26 13:00:00 34.6 21 Sur 32 Sur 0 964.3 -0.8 24
2019-06-26 12:00:00 30.8 18 Sudoeste 30 Sudoeste 0 965 0 38
2019-06-26 11:00:00 28.3 3 Sudoeste 11 Sudeste 0 965 0.1 48
2019-06-26 10:00:00 24.7 6 Este 11 Este 0 965.1 0.4 63
2019-06-26 09:00:00 22.1 0 Calma 5 Oeste 0 965 0.5 77
2019-06-26 08:00:00 18.2 0 Calma 8 Este 0 964.9 0.4 91
2019-06-26 07:00:00 15.9 0 Calma -- -- -- 964.7 0.3 94
2019-06-26 06:00:00 16.3 5 Sudeste 8 Sur 0 964.5 0.2 93
2019-06-26 05:00:00 17 0 Calma 9 Sur 0 964.5 0.4 93
2019-06-26 04:00:00 17.6 0 Calma 9 Sudeste 0 964.4 0.4 94
2019-06-26 03:00:00 18.4 5 Oeste 11 Oeste 0 964.3 0.5 92
2019-06-26 02:00:00 19.1 6 Oeste 11 Oeste 0 964.1 0.4 90
2019-06-26 01:00:00 20.3 8 Oeste 15 Oeste 0 964 1 87
2019-06-26 00:00:00 21.6 10 Oeste 15 Oeste 0 963.8 1.3 83
2019-06-25 23:00:00 23.1 11 Oeste 15 Oeste 0 963.7 1.8 78
2019-06-25 22:00:00 24.9 8 Oeste 22 Noroeste 0 963 1.7 72
2019-06-25 21:00:00 27.5 18 Noroeste 26 Noroeste 0 962.5 0.9 64
2019-06-25 20:00:00 30.3 19 Noroeste 30 Norte 0 961.9 0 56
2019-06-25 19:00:00 34.2 13 Sudeste 26 Este 0 961.3 -1.1 30
2019-06-25 18:00:00 34.2 14 Sur 30 Sudeste 0 961.6 -1.4 30
2019-06-25 17:00:00 34.6 14 Sur 30 Sudoeste 0 961.9 -1.8 30
2019-06-25 16:00:00 34.1 16 Sur 30 Sur 0 962.4 -1.7 29
2019-06-25 15:00:00 32 6 Este 15 Este 0 963 -1.4 38
2019-06-25 14:00:00 30.8 8 Sudoeste 18 Sudoeste 0 963.7 -0.7 40
2019-06-25 13:00:00 27.5 6 Este 13 Este 0 964.1 -0.8 48
2019-06-25 12:00:00 24.8 4 Norte 9 Oeste 0 964.4 -0.3 55
2019-06-25 11:00:00 23.2 4 Nordeste 13 Oeste 0 964.4 -0.1 63
2019-06-25 10:00:00 20.3 4 Oeste 9 Oeste 0 964.9 0.7 77
2019-06-25 09:00:00 18.6 2 Sudeste 8 Oeste 0 964.7 0.9 80
2019-06-25 08:00:00 17.1 5 Oeste 8 Oeste 0 964.5 0.8 86
2019-06-25 07:00:00 16.7 4 Oeste 8 Oeste 0 964.2 0.4 86
2019-06-25 06:00:00 16.7 5 Oeste 9 Oeste 0 963.8 -0.1 86
2019-06-25 05:00:00 17 4 Oeste 8 Oeste 0 963.7 -0.4 85
2019-06-25 04:00:00 17.2 5 Oeste 8 Oeste 0 963.8 -0.2 85
2019-06-25 03:00:00 17.5 3 Oeste 8 Oeste 0 963.9 0.7 85
2019-06-25 02:00:00 17.5 2 Noroeste 13 Oeste 0 964.1 2.3 84
2019-06-25 01:00:00 18.2 7 Noroeste 30 Noroeste 0 964 3.3 83
2019-06-25 00:00:00 19.6 19 Noroeste 28 Noroeste 0 963.2 3.2 78
2019-06-24 23:00:00 21.9 14 Noroeste 35 Norte 0 961.8 2.1 68
2019-06-24 22:00:00 27.1 16 Noroeste 30 Noroeste 0 960.7 1 41
2019-06-24 21:00:00 29.5 10 Sudeste 22 Sudeste 0 960 0 29
2019-06-24 20:00:00 30.1 12 Este 22 Sudeste 0 959.7 -0.4 27
2019-06-24 19:00:00 30.9 15 Sudeste 39 Sur 0 959.7 -0.9 25
2019-06-24 18:00:00 32.1 22 Sur 41 Sur 0 960 -0.5 23
2019-06-24 17:00:00 31.7 26 Sur 37 Sur 0 960.1 -1.1 22
2019-06-24 16:00:00 30.4 18 Sur 45 Sudeste 0 960.6 -0.6 23
2019-06-24 15:00:00 29.1 25 Sur 39 Sur 0 960.5 -0.8 24
2019-06-24 14:00:00 30.6 24 Sur 45 Sur 0 961.2 -0.2 22
2019-06-24 13:00:00 30.4 28 Sur 41 Sur 0 961.2 -0.4 24
2019-06-24 12:00:00 29.9 28 Sur 46 Sur 0 961.3 -0.2 26
2019-06-24 11:00:00 28.9 20 Sur 30 Sur 0 961.4 0 30
2019-06-24 10:00:00 26.7 18 Sur 33 Sur 0 961.6 0.6 33
2019-06-24 09:00:00 24.1 7 Sur 37 Sur 0 961.5 0.6 39
2019-06-24 08:00:00 22.3 22 Sur 42 Sur 0 961.4 0.8 39
2019-06-24 07:00:00 16.6 8 Oeste 22 Sudeste 0 961 0.3 81
2019-06-24 06:00:00 15.8 6 Este 13 Sudoeste 0 960.9 0 89
2019-06-24 05:00:00 14.8 6 Noroeste 13 Noroeste 0 960.6 -0.1 91
2019-06-24 04:00:00 15.8 0 Calma 13 Este 0 960.7 -0.2 89
2019-06-24 03:00:00 17 8 Noroeste 11 Noroeste 0 960.9 0.2 85
2019-06-24 02:00:00 17.7 3 Oeste 11 Oeste 0 960.7 0.3 81
2019-06-24 01:00:00 19.1 9 Oeste 13 Oeste 0 960.9 1.3 81
2019-06-24 00:00:00 20.4 10 Oeste 15 Oeste 0 960.7 1.4 76
2019-06-23 23:00:00 21.9 12 Oeste 18 Noroeste 0 960.4 2.1 71
2019-06-23 22:00:00 23.5 13 Oeste 22 Oeste 0 959.6 1.6 67
2019-06-23 21:00:00 25.6 12 Oeste 32 Noroeste 0 959.3 0.9 61
2019-06-23 20:00:00 32.2 11 Sudeste 32 Sur 0 958.3 -0.8 29
2019-06-23 19:00:00 33.4 18 Sur 32 Sudeste 0 958 -1.5 27
2019-06-23 18:00:00 33.3 13 Sur 33 Sur 0 958.4 -1.5 27
2019-06-23 17:00:00 33.1 18 Sudeste 32 Sudeste 0 959.1 -1.2 28
2019-06-23 16:00:00 33 15 Sur 30 Sur 0 959.5 -1.2 30
2019-06-23 15:00:00 31.6 19 Sur 32 Sudeste 0 959.9 -1.1 31
2019-06-23 14:00:00 31.5 16 Sudeste 35 Sur 0 960.3 -0.9 34
2019-06-23 13:00:00 31 15 Sur 39 Sur 0 960.7 -0.4 37
2019-06-23 12:00:00 28.9 11 Sur 22 Sudoeste 0 961 -0.3 42
2019-06-23 11:00:00 24.6 12 Norte 18 Norte 0 961.2 0.3 56
2019-06-23 10:00:00 22.6 5 Norte 11 Norte 0 961.1 0.6 63
2019-06-23 09:00:00 18.7 3 Sur 5 Sur 0 961.3 1.2 74
2019-06-23 08:00:00 16.4 4 Este 8 Este 0 960.9 0.9 79
2019-06-23 07:00:00 16.6 0 Calma 9 Este 0 960.5 0.8 72
2019-06-23 06:00:00 16.1 0 Calma 11 Norte 0 960.1 0.2 76
2019-06-23 05:00:00 16.9 9 Noroeste 13 Noroeste 0 960 -0.5 73
2019-06-23 04:00:00 16.4 9 Oeste 17 Noroeste 0 959.7 -1 76
2019-06-23 03:00:00 17.5 11 Oeste 18 Oeste 0 959.9 -0.8 72
2019-06-23 02:00:00 22.5 8 Sur 39 Sudeste 0 960.5 0.1 49
2019-06-23 01:00:00 18.2 4 Noroeste 9 Sudeste 0 960.7 0.7 68
2019-06-23 00:00:00 19.3 8 Sur 13 Sur 0 960.7 0.7 63
2019-06-22 23:00:00 20.8 5 Sur 13 Sur 0 960.4 0.6 60
2019-06-22 22:00:00 23.4 9 Sur 15 Sur 0 960 0.1 55
2019-06-22 21:00:00 27.9 2 Nordeste 15 Sudeste 0 960 -0.2 35
2019-06-22 20:00:00 28.3 10 Sudeste 15 Sudeste 0 959.8 -1.2 34
2019-06-22 19:00:00 29.4 8 Este 18 Este 0 959.9 -1.5 31
2019-06-22 18:00:00 29.6 7 Sudeste 22 Sudoeste 0 960.2 -1.9 32
2019-06-22 17:00:00 29.1 8 Sur 22 Sur 0 961 -1.9 32
2019-06-22 16:00:00 29.1 8 Sudoeste 21 Sudoeste 0 961.4 -2.3 31
2019-06-22 15:00:00 27.6 5 Este 21 Sur 0 962.1 -2.3 36
2019-06-22 14:00:00 26.4 6 Sur 18 Noroeste 0 962.9 -2 39
2019-06-22 13:00:00 24.3 7 Sur 18 Sur 0 963.7 -1.5 47
2019-06-22 12:00:00 20.5 4 Nordeste 13 Este 0 964.4 -1.2 55
2019-06-22 11:00:00 18.1 5 Sur 13 Oeste 0 964.9 -0.8 62
2019-06-22 10:00:00 15.1 3 Nordeste 11 Nordeste 0 965.2 -0.2 72
2019-06-22 09:00:00 13.4 4 Este 9 Nordeste 0 965.6 0.1 78
2019-06-22 08:00:00 9.6 4 Sudoeste 8 Sur 0 965.7 0.1 90
2019-06-22 07:00:00 7.9 6 Sur 9 Sur 0 965.4 -0.6 94
2019-06-22 06:00:00 7.5 4 Este 11 Sudeste 0 965.5 -0.9 94
2019-06-22 05:00:00 8.2 5 Sudeste 11 Sur 0 965.6 -1.3 95
2019-06-22 04:00:00 9.5 5 Oeste 9 Sur 0 966 -1.4 92
2019-06-22 03:00:00 10.3 8 Noroeste 15 Noroeste 0 966.4 -1.3 90
2019-06-22 02:00:00 11.4 10 Noroeste 13 Noroeste 0 966.9 -0.6 86
2019-06-22 01:00:00 12.1 8 Norte 18 Noroeste 0 967.4 0.4 83
2019-06-22 00:00:00 12.7 15 Noroeste 24 Norte 0 967.7 1.3 79
2019-06-21 23:00:00 13.2 13 Noroeste 26 Norte 0 967.5 1.5 77
2019-06-21 22:00:00 14.4 15 Norte 30 Norte 0 967 1.4 73
2019-06-21 21:00:00 15.8 20 Norte 32 Nordeste 0 966.4 0.6 67
2019-06-21 20:00:00 17.1 22 Norte 39 Norte 0 966 0.1 61
2019-06-21 19:00:00 18.6 23 Norte 37 Norte 0 965.6 -0.6 59
2019-06-21 18:00:00 18.2 26 Norte 42 Norte 0 965.8 -0.7 59
2019-06-21 17:00:00 18.4 29 Norte 41 Norte 0 965.9 -0.6 62
2019-06-21 16:00:00 18.6 26 Norte 42 Norte 0 966.2 -0.2 62
2019-06-21 15:00:00 17.3 25 Norte 41 Noroeste 0 966.5 0.1 67
2019-06-21 14:00:00 17.1 24 Norte 37 Noroeste 0 966.5 0.7 67
2019-06-21 13:00:00 17.3 24 Norte 37 Norte 0 966.4 0.7 66
2019-06-21 12:00:00 16.6 23 Norte 39 Norte 0 966.4 0.9 70
2019-06-21 11:00:00 16.7 21 Norte 30 Noroeste 0 965.8 0.9 74
2019-06-21 10:00:00 15.1 16 Noroeste 26 Norte 0 965.7 1.8 81
2019-06-21 09:00:00 14 10 Noroeste 21 Noroeste 0 965.5 1.3 88
2019-06-21 08:00:00 13.3 17 Noroeste 26 Noroeste 0 964.9 1 91
2019-06-21 07:00:00 13.1 13 Nordeste 32 Norte 0 963.9 -0.4 92
2019-06-21 06:00:00 13.1 20 Norte 30 Norte 0 964.2 -0.2 91
2019-06-21 05:00:00 13.1 15 Norte 24 Noroeste 0.7 963.9 0.3 93
2019-06-21 04:00:00 13.3 13 Norte 24 Noroeste 0.1 964.3 -0.1 91
2019-06-21 03:00:00 13.3 11 Noroeste 35 Norte 0.3 964.4 0.3 96
2019-06-21 02:00:00 13.9 20 Norte 33 Norte 0.6 963.6 -0.5 94
2019-06-21 01:00:00 14.2 14 Noroeste 22 Noroeste 0 964.4 0.8 92
2019-06-21 00:00:00 14 15 Norte 22 Norte 0.2 964.1 0.7 93
2019-06-20 23:00:00 14.3 15 Noroeste 30 Noroeste 0.4 964.1 0.2 92
2019-06-20 22:00:00 14.4 22 Noroeste 33 Noroeste 0.2 963.6 0.9 92
2019-06-20 21:00:00 14.7 10 Noroeste 35 Norte 0.5 963.4 0.8 93
2019-06-20 20:00:00 15.6 21 Noroeste 39 Noroeste 0.1 963.9 0.8 87
2019-06-20 19:00:00 17.6 25 Norte 42 Norte 0 962.7 -0.4 72
2019-06-20 18:00:00 17.4 30 Norte 45 Norte 0 962.6 -0.1 73
2019-06-20 17:00:00 18.4 28 Norte 45 Norte 0 963.1 -0.2 70
2019-06-20 16:00:00 19.9 32 Noroeste 46 Noroeste 0 963.1 -0.5 65
2019-06-20 15:00:00 21.6 29 Noroeste 41 Noroeste 0 962.7 -0.8 61
2019-06-20 14:00:00 20.6 28 Noroeste 41 Noroeste 0 963.3 -0.4 63
2019-06-20 13:00:00 19.2 27 Noroeste 37 Noroeste 0 963.6 0 68
2019-06-20 12:00:00 19.5 21 Norte 32 Noroeste 0 963.5 -0.3 68
2019-06-20 11:00:00 18.1 19 Norte 37 Norte 0 963.7 0 72
2019-06-20 10:00:00 16.9 21 Norte 32 Noroeste 0 963.6 0 76
2019-06-20 09:00:00 16 21 Norte 35 Norte 0 963.8 0.4 80
2019-06-20 08:00:00 16.1 19 Norte 30 Norte 0 963.7 0.3 80
2019-06-20 07:00:00 15.6 15 Noroeste 22 Noroeste 0 963.6 0 83
2019-06-20 06:00:00 15.4 16 Norte 24 Noroeste 0 963.4 -0.3 83
2019-06-20 05:00:00 15 14 Noroeste 21 Norte 0 963.4 -0.2 82
2019-06-20 04:00:00 15.4 17 Norte 26 Norte 0 963.6 -0.1 80
2019-06-20 03:00:00 14.7 14 Norte 26 Noroeste 0 963.7 0.1 84
2019-06-20 02:00:00 14.8 15 Noroeste 32 Norte 0 963.6 0.3 82
2019-06-20 01:00:00 15.3 22 Norte 33 Norte 0 963.7 1.3 78
2019-06-20 00:00:00 15.7 23 Norte 32 Norte 0 963.6 2.6 77
2019-06-19 23:00:00 16 23 Norte 35 Norte 0 963.3 2.9 78
2019-06-19 22:00:00 16.8 22 Norte 45 Norte 0 962.4 2.2 77
2019-06-19 21:00:00 20.1 26 Norte 41 Noroeste 0 961 0.7 68
2019-06-19 20:00:00 24.1 24 Norte 35 Norte 0 960.4 -0.4 58
2019-06-19 19:00:00 25.2 9 Norte 22 Nordeste 0 960.2 -0.7 41
2019-06-19 18:00:00 26.5 7 Norte 15 Noroeste 0 960.3 -0.9 39
2019-06-19 17:00:00 25.9 10 Norte 21 Oeste 0 960.8 -0.4 41
2019-06-19 16:00:00 28.2 11 Sudoeste 22 Oeste 0 960.9 -0.4 35
2019-06-19 15:00:00 26.8 12 Oeste 21 Oeste 0 961.2 0 41
2019-06-19 14:00:00 25.4 10 Sudoeste 22 Sur 0 961.2 0 42
2019-06-19 13:00:00 25.4 13 Sudoeste 30 Oeste 0 961.3 0 42
2019-06-19 12:00:00 25.1 11 Oeste 21 Oeste 0 961.2 -0.3 43
2019-06-19 11:00:00 23.4 6 Norte 13 Norte 0 961.2 0 51
2019-06-19 10:00:00 21.5 4 Noroeste 9 Noroeste 0 961.3 0.3 55
2019-06-19 09:00:00 18.1 0 Calma 5 Sur 0 961.5 0.6 67
2019-06-19 08:00:00 16.1 3 Nordeste 5 Nordeste 0 961.2 0.8 73
2019-06-19 07:00:00 14.3 0 Calma 5 Sudoeste 0 961 0.9 81
2019-06-19 06:00:00 13.8 3 Nordeste 9 Sudeste 0 960.9 1 80
2019-06-19 05:00:00 13.8 0 Calma 8 Sur 0 960.4 0.7 75
2019-06-19 04:00:00 14.9 0 Calma 5 Este 0 960.1 0.6 73
2019-06-19 03:00:00 15.4 3 Sur 11 Sur 0 959.9 0.7 72
2019-06-19 02:00:00 17.1 8 Oeste 13 Oeste 0 959.7 1.5 68
2019-06-19 01:00:00 18.9 9 Oeste 15 Oeste 0 959.5 3 61
2019-06-19 00:00:00 21 9 Oeste 21 Norte 0 959.2 2.7 50
2019-06-18 23:00:00 24.6 13 Norte 39 Oeste 0 958.2 1.9 26
2019-06-18 22:00:00 29.2 29 Sudoeste 45 Oeste 0 956.5 0.5 13
2019-06-18 21:00:00 30.4 28 Sudoeste 42 Sudoeste 0 956.5 0.4 13
2019-06-18 20:00:00 31.9 27 Sudoeste 42 Sudoeste 0 956.3 -0.2 13
2019-06-18 19:00:00 33.2 27 Sudoeste 50 Sur 0 956 -1.3 14
2019-06-18 18:00:00 33.5 33 Sur 58 Sur 0 956.1 -2 14
2019-06-18 17:00:00 33.6 35 Sur 54 Sur 0 956.5 -2.2 17
2019-06-18 16:00:00 31.2 26 Sur 52 Sudeste 0 957.3 -2 23
2019-06-18 15:00:00 32.7 30 Sur 54 Sur 0 958.1 -1.8 22
2019-06-18 14:00:00 31.9 30 Sur 48 Sur 0 958.7 -1.5 24
2019-06-18 13:00:00 30.4 23 Sur 39 Sur 0 959.3 -1.3 26
2019-06-18 12:00:00 29.1 18 Sur 37 Sur 0 959.9 -0.6 28
2019-06-18 11:00:00 26.9 10 Sudeste 18 Sur 0 960.2 -0.2 35
2019-06-18 10:00:00 24.7 5 Sudoeste 11 Oeste 0 960.6 0.4 41
2019-06-18 09:00:00 22 5 Noroeste 8 Oeste 0 960.5 0.2 55
2019-06-18 08:00:00 18.4 0 Calma 13 Sudeste 0 960.4 -0.2 70
2019-06-18 07:00:00 14.9 5 Nordeste 8 Nordeste 0 960.2 -0.3 80
2019-06-18 06:00:00 16.6 2 Nordeste 17 Sudeste 0 960.3 0.1 72
2019-06-18 05:00:00 16.6 4 Oeste 13 Sudeste 0 960.6 0 78
2019-06-18 04:00:00 17.2 7 Oeste 17 Oeste 0 960.5 -0.4 78
2019-06-18 03:00:00 16.5 5 Noroeste 15 Noroeste 0 960.2 -0.6 80
2019-06-18 02:00:00 17.8 3 Norte 13 Nordeste 0 960.6 0.3 70
2019-06-18 01:00:00 17.9 3 Oeste 13 Sudoeste 0 960.9 1.2 71
2019-06-18 00:00:00 18.9 4 Sur 11 Sudoeste 0 960.8 1.3 68
2019-06-17 23:00:00 20.8 2 Oeste 9 Oeste 0 960.3 0.7 59
2019-06-17 22:00:00 24.3 8 Nordeste -- -- -- 959.7 0 45
2019-06-17 21:00:00 26.2 7 Sudeste 9 Sudeste 0 959.5 -0.5 37
2019-06-17 20:00:00 28.5 9 Sudeste 11 Sudeste 0 959.6 -1 29
2019-06-17 19:00:00 31.3 7 Sur 17 Sudoeste 0 959.7 -1.6 22
2019-06-17 18:00:00 31.9 5 Sudoeste 21 Oeste 0 960 -2 21
2019-06-17 17:00:00 32 11 Sur 22 Sur 0 960.6 -2.2 20
2019-06-17 16:00:00 31.1 11 Sudeste 22 Sur 0 961.3 -2.2 24
2019-06-17 15:00:00 29.9 9 Este 22 Sudeste 0 962 -2.3 26
2019-06-17 14:00:00 29.2 12 Sur 18 Sudeste 0 962.8 -1.7 35
2019-06-17 13:00:00 28 10 Sudeste 21 Este 0 963.5 -1.3 38
2019-06-17 12:00:00 25.2 5 Nordeste 17 Este 0 964.3 -0.6 45
2019-06-17 11:00:00 22.7 3 Nordeste 11 Nordeste 0 964.5 -0.4 52
2019-06-17 10:00:00 19.6 2 Este 9 Nordeste 0 964.8 0.3 63
2019-06-17 09:00:00 16.8 5 Nordeste 9 Nordeste 0 964.9 0.5 71
2019-06-17 08:00:00 13.8 0 Calma 8 Sur 0 964.9 0.7 83
2019-06-17 07:00:00 11.2 0 Calma 5 Sudeste 0 964.5 0 90
2019-06-17 06:00:00 11.2 5 Sur 8 Sur 0 964.4 -0.5 92
2019-06-17 05:00:00 12.1 2 Sudeste 8 Este 0 964.2 -0.9 90
2019-06-17 04:00:00 12.6 0 Calma 8 Sur 0 964.5 -0.5 87
2019-06-17 03:00:00 13.4 5 Sur 8 Sudeste 0 964.9 -0.2 88
2019-06-17 02:00:00 14.7 5 Sur 9 Sudeste 0 965.1 0.2 84
2019-06-17 01:00:00 15.9 6 Sudeste 9 Sudeste 0 965 0.6 79
2019-06-17 00:00:00 16.4 7 Oeste 9 Oeste 0 965.1 1.1 78
2019-06-16 23:00:00 18.6 2 Oeste 9 Noroeste 0 964.9 1.5 70
2019-06-16 22:00:00 20.4 8 Noroeste 18 Norte 0 964.4 1 65
2019-06-16 21:00:00 22.7 13 Norte 28 Nordeste 0 964 0.3 54
2019-06-16 20:00:00 25.8 8 Nordeste 17 Nordeste 0 963.4 -1 34
2019-06-16 19:00:00 27.2 10 Este 21 Este 0 963.4 -1.5 27
2019-06-16 18:00:00 27.9 10 Este 21 Sur 0 963.7 -1.9 27
2019-06-16 17:00:00 28.5 11 Sur 21 Sur 0 964.4 -1.9 28
2019-06-16 16:00:00 27.4 8 Sur 24 Sur 0 964.9 -2.2 29
2019-06-16 15:00:00 26.1 7 Sudeste 22 Sudeste 0 965.6 -2.2 34
2019-06-16 14:00:00 24.8 10 Este 17 Sudeste 0 966.3 -1.9 39
2019-06-16 13:00:00 22.9 5 Nordeste -- -- -- 967.1 -1.4 45
2019-06-16 12:00:00 20.3 5 Nordeste 13 Noroeste 0 967.8 -0.7 54
2019-06-16 11:00:00 17.8 3 Sudeste 11 Este 0 968.2 -0.2 61
2019-06-16 10:00:00 15.6 3 Este 11 Este 0 968.5 0.2 67
2019-06-16 09:00:00 13.3 2 Norte 5 Nordeste 0 968.5 0.3 76
2019-06-16 08:00:00 10.6 3 Sur 8 Sudeste 0 968.4 0.1 86
2019-06-16 07:00:00 7.3 3 Sudeste 5 Sur 0 968.3 -0.1 93
2019-06-16 06:00:00 7.1 8 Sudeste -- -- 0 968.2 -0.3 94
2019-06-16 05:00:00 7.8 0 Calma 9 Sudeste 0 968.3 -0.6 92
2019-06-16 04:00:00 8.4 2 Sur 8 Noroeste 0 968.4 -0.7 91
2019-06-16 03:00:00 9.5 6 Oeste 13 Noroeste 0 968.5 -0.6 87
2019-06-16 02:00:00 10.5 5 Oeste 17 Norte 0 968.9 -0.2 85
2019-06-16 01:00:00 11.4 14 Noroeste 26 Noroeste 0 969.1 0.8 82
2019-06-16 00:00:00 12 14 Noroeste 21 Noroeste 0 969.1 1.2 80